createdAt,value
2017-09-15T04:16:45.575Z,2
2017-09-15T04:23:45.996Z,5
2017-09-15T04:26:46.238Z,8
2017-09-15T04:28:46.335Z,10
2017-09-15T04:29:46.462Z,13
2017-09-15T04:31:16.471Z,15
2017-09-15T04:32:16.544Z,17
2017-09-15T04:32:46.615Z,20
2017-09-15T04:33:46.621Z,22
2017-09-15T04:34:16.726Z,25
2017-09-15T04:34:46.686Z,28
2017-09-15T04:35:16.742Z,30
2017-09-15T04:35:46.751Z,32
2017-09-15T04:36:16.810Z,35
2017-09-15T04:36:46.817Z,37
2017-09-15T04:37:16.873Z,40
2017-09-15T04:37:46.885Z,43
2017-09-15T04:38:16.924Z,47
2017-09-15T04:38:46.953Z,50
2017-09-15T04:39:17.033Z,55
2017-09-15T04:39:47.108Z,58
2017-09-15T04:40:17.070Z,62
2017-09-15T04:40:47.206Z,67
2017-09-15T04:41:17.125Z,73
2017-09-15T04:41:47.185Z,77
2017-09-15T04:42:17.189Z,83
2017-09-15T04:42:47.282Z,90
2017-09-15T04:43:17.274Z,95
2017-09-15T04:43:47.272Z,103
2017-09-15T04:44:17.328Z,110
2017-09-15T04:44:47.375Z,115
2017-09-15T04:45:17.436Z,122
2017-09-15T04:45:47.463Z,130
2017-09-15T04:46:17.438Z,137
2017-09-15T04:46:47.482Z,145
2017-09-15T04:47:17.530Z,155
2017-09-15T04:47:47.574Z,160
2017-09-15T04:48:17.934Z,170
2017-09-15T04:48:47.586Z,178
2017-09-15T04:49:17.643Z,187
2017-09-15T04:49:47.712Z,197
2017-09-15T04:50:17.757Z,208
2017-09-15T04:50:47.778Z,220
2017-09-15T04:51:17.809Z,230
2017-09-15T04:51:47.837Z,242
2017-09-15T04:52:17.874Z,255
2017-09-15T04:52:47.929Z,268
2017-09-15T04:53:18.057Z,280
2017-09-15T04:53:47.976Z,293
2017-09-15T04:54:17.988Z,308
2017-09-15T04:54:48.018Z,320
2017-09-15T04:55:18.053Z,332
2017-09-15T04:55:48.135Z,347
2017-09-15T04:56:18.115Z,362
2017-09-15T04:56:48.181Z,377
2017-09-15T04:57:18.169Z,395
2017-09-15T04:57:48.204Z,410
2017-09-15T04:58:18.246Z,428
2017-09-15T04:58:48.346Z,445
2017-09-15T04:59:18.366Z,460
2017-09-15T04:59:48.359Z,478
2017-09-15T05:00:18.384Z,493
2017-09-15T05:00:48.439Z,510
2017-09-15T05:01:18.457Z,527
2017-09-15T05:01:48.591Z,548
2017-09-15T05:02:18.519Z,565
2017-09-15T05:02:48.531Z,583
2017-09-15T05:03:18.599Z,602
2017-09-15T05:03:48.626Z,623
2017-09-15T05:04:18.638Z,640
2017-09-15T05:04:48.677Z,660
2017-09-15T05:05:18.733Z,680
2017-09-15T05:05:48.737Z,703
2017-09-15T05:06:18.752Z,722
2017-09-15T05:06:48.807Z,745
2017-09-15T05:07:18.878Z,765
2017-09-15T05:07:48.909Z,787
2017-09-15T05:08:18.907Z,808
2017-09-15T05:08:48.975Z,830
2017-09-15T05:09:18.965Z,853
2017-09-15T05:09:48.989Z,877
2017-09-15T05:10:19.041Z,902
2017-09-15T05:10:49.081Z,925
2017-09-15T05:11:19.125Z,952
2017-09-15T05:11:49.118Z,973
2017-09-15T05:12:19.127Z,998
2017-09-15T05:12:49.199Z,1022
2017-09-15T05:13:19.191Z,1050
2017-09-15T05:13:49.246Z,1078
2017-09-15T05:14:19.225Z,1097
2017-09-15T05:14:49.319Z,1120
2017-09-15T05:15:19.354Z,1142
2017-09-15T05:15:49.350Z,1168
2017-09-15T05:16:19.411Z,1195
2017-09-15T05:16:49.418Z,1220
2017-09-15T05:17:19.488Z,1245
2017-09-15T05:17:49.441Z,1273
2017-09-15T05:18:19.508Z,1292
2017-09-15T05:18:49.542Z,1318
2017-09-15T05:19:19.551Z,1342
2017-09-15T05:19:49.636Z,1370
2017-09-15T05:20:19.640Z,1395
2017-09-15T05:20:49.626Z,1420
2017-09-15T05:21:19.652Z,1440
2017-09-15T05:21:49.684Z,1468
2017-09-15T05:22:19.710Z,1493
2017-09-15T05:22:49.745Z,1513
2017-09-15T05:23:19.766Z,1540
2017-09-15T05:23:49.884Z,1558
2017-09-15T05:24:19.886Z,1583
2017-09-15T05:24:49.864Z,1600
2017-09-15T05:25:19.891Z,1620
2017-09-15T05:25:50.180Z,1640
2017-09-15T05:26:20.017Z,1660
2017-09-15T05:26:50.041Z,1680
2017-09-15T05:27:20.034Z,1700
2017-09-15T05:27:50.058Z,1725
2017-09-15T05:28:20.170Z,1740
2017-09-15T05:28:50.107Z,1757
2017-09-15T05:29:20.149Z,1772
2017-09-15T05:29:50.163Z,1790
2017-09-15T05:30:20.201Z,1810
2017-09-15T05:30:50.266Z,1830
2017-09-15T05:31:20.356Z,1852
2017-09-15T05:31:50.342Z,1873
2017-09-15T05:32:20.363Z,1897
2017-09-15T05:32:50.352Z,1922
2017-09-15T05:33:20.414Z,1942
2017-09-15T05:33:50.468Z,1965
2017-09-15T05:34:20.456Z,1993
2017-09-15T05:34:50.552Z,2017
2017-09-15T05:35:20.532Z,2042
2017-09-15T05:35:50.580Z,2070
2017-09-15T05:36:20.644Z,2095
2017-09-15T05:36:50.641Z,2125
2017-09-15T05:37:20.657Z,2153
2017-09-15T05:37:50.686Z,2180
2017-09-15T05:38:20.693Z,2207
2017-09-15T05:38:50.755Z,2230
2017-09-15T05:39:20.748Z,2250
2017-09-15T05:39:50.863Z,2267
2017-09-15T05:40:20.840Z,2282
2017-09-15T05:40:50.884Z,2302
2017-09-15T05:41:20.931Z,2333
2017-09-15T05:41:50.910Z,2347
2017-09-15T05:42:20.943Z,2368
2017-09-15T05:42:50.974Z,2400
2017-09-15T05:43:21.016Z,2473
2017-09-15T05:43:51.080Z,2530
2017-09-15T05:44:21.152Z,2635
2017-09-15T05:44:51.111Z,3013
2017-09-15T05:45:21.130Z,3680
2017-09-15T05:45:51.160Z,4455
2017-09-15T05:46:21.313Z,5102
2017-09-15T05:46:51.223Z,5783
2017-09-15T05:47:21.271Z,6017
2017-09-15T05:47:51.302Z,5565
2017-09-15T05:48:21.366Z,5803
2017-09-15T05:48:51.407Z,6338
2017-09-15T05:49:21.423Z,6195
2017-09-15T05:49:51.435Z,5897
2017-09-15T05:50:21.515Z,4988
2017-09-15T05:50:51.550Z,3932
2017-09-15T05:51:21.629Z,3920
2017-09-15T05:51:51.597Z,5865
2017-09-15T05:52:21.617Z,7538
2017-09-15T05:52:51.660Z,7680
2017-09-15T05:53:21.667Z,7760
2017-09-15T05:53:51.678Z,7895
2017-09-15T05:54:21.745Z,8023
2017-09-15T05:54:51.783Z,8165
2017-09-15T05:55:21.805Z,8288
2017-09-15T05:55:51.818Z,8450
2017-09-15T05:56:21.880Z,8678
2017-09-15T05:56:51.932Z,8803
2017-09-15T05:57:21.917Z,8872
2017-09-15T05:57:51.968Z,8957
2017-09-15T05:58:21.987Z,9002
2017-09-15T05:58:52.033Z,9070
2017-09-15T05:59:22.038Z,9120
2017-09-15T05:59:52.107Z,9163
2017-09-15T06:00:22.122Z,9182
2017-09-15T06:00:52.173Z,9295
2017-09-15T06:01:22.216Z,9368
2017-09-15T06:01:52.200Z,9328
2017-09-15T06:02:22.178Z,8800
2017-09-15T06:02:52.290Z,7772
2017-09-15T06:03:22.325Z,7142
2017-09-15T06:03:52.344Z,6595
2017-09-15T06:04:22.345Z,6225
2017-09-15T06:04:52.397Z,6307
2017-09-15T06:05:22.415Z,7648
2017-09-15T06:05:52.417Z,7607
2017-09-15T06:06:22.652Z,6302
2017-09-15T06:06:52.469Z,4355
2017-09-15T06:07:22.493Z,3262
2017-09-15T06:07:52.572Z,3060
2017-09-15T06:08:22.600Z,3133
2017-09-15T06:08:52.605Z,3150
2017-09-15T06:09:22.686Z,3202
2017-09-15T06:09:52.648Z,3167
2017-09-15T06:10:22.751Z,3130
2017-09-15T06:10:52.781Z,3092
2017-09-15T06:11:22.817Z,3110
2017-09-15T06:11:52.824Z,3193
2017-09-15T06:12:22.854Z,3290
2017-09-15T06:12:52.903Z,3328
2017-09-15T06:13:22.867Z,3375
2017-09-15T06:13:52.893Z,3410
2017-09-15T06:14:22.962Z,3445
2017-09-15T06:14:52.951Z,3493
2017-09-15T06:15:23.051Z,3628
2017-09-15T06:15:53.010Z,4230
2017-09-15T06:16:23.104Z,5935
2017-09-15T06:16:53.106Z,6178
2017-09-15T06:17:23.112Z,6625
2017-09-15T06:17:53.159Z,8760
2017-09-15T06:18:23.168Z,10855
2017-09-15T06:18:53.244Z,11825
2017-09-15T06:19:23.238Z,10130
2017-09-15T06:19:53.264Z,11620
2017-09-15T06:20:23.307Z,10855
2017-09-15T06:20:53.396Z,11828
2017-09-15T06:21:23.425Z,9272
2017-09-15T06:21:53.402Z,5048
2017-09-15T06:22:23.473Z,4922
2017-09-15T06:22:53.453Z,4703
2017-09-15T06:23:23.509Z,6463
2017-09-15T06:23:53.570Z,8195
2017-09-15T06:24:23.581Z,9120
2017-09-15T06:24:53.599Z,6755
2017-09-15T06:25:23.601Z,7590
2017-09-15T06:25:53.704Z,8415
2017-09-15T06:26:23.715Z,8135
2017-09-15T06:26:53.753Z,10530
2017-09-15T06:27:23.795Z,8528
2017-09-15T06:27:53.788Z,8280
2017-09-15T06:28:23.809Z,11275
2017-09-15T06:28:53.823Z,10420
2017-09-15T06:29:23.851Z,8813
2017-09-15T06:29:53.903Z,9817
2017-09-15T06:30:23.935Z,6008
2017-09-15T06:30:53.958Z,5435
2017-09-15T06:31:23.971Z,6268
2017-09-15T06:31:54.001Z,6497
2017-09-15T06:32:24.028Z,5618
2017-09-15T06:32:54.058Z,5783
2017-09-15T06:33:24.144Z,8602
2017-09-15T06:33:54.159Z,6850
2017-09-15T06:34:24.156Z,6240
2017-09-15T06:34:54.259Z,6377
2017-09-15T06:35:24.243Z,6990
2017-09-15T06:35:54.244Z,9163
2017-09-15T06:36:24.339Z,5677
2017-09-15T06:36:54.323Z,6865
2017-09-15T06:37:24.399Z,7045
2017-09-15T06:37:54.412Z,6673
2017-09-15T06:38:24.454Z,6955
2017-09-15T06:38:54.460Z,6472
2017-09-15T06:39:24.522Z,4445
2017-09-15T06:39:54.542Z,5518
2017-09-15T06:40:24.603Z,3995
2017-09-15T06:40:54.633Z,4065
2017-09-15T06:41:24.646Z,4215
2017-09-15T06:41:54.659Z,4105
2017-09-15T06:42:24.704Z,4063
2017-09-15T06:42:54.795Z,4645
2017-09-15T06:43:24.763Z,4805
2017-09-15T06:43:54.783Z,4363
2017-09-15T06:44:24.842Z,4385
2017-09-15T06:44:54.871Z,4400
2017-09-15T06:45:24.913Z,4742
2017-09-15T06:45:54.943Z,4715
2017-09-15T06:46:24.961Z,5788
2017-09-15T06:46:55.060Z,6690
2017-09-15T06:47:25.012Z,5518
2017-09-15T06:47:55.035Z,8960
2017-09-15T06:48:25.086Z,6107
2017-09-15T06:48:55.099Z,6080
2017-09-15T06:49:25.158Z,5833
2017-09-15T06:49:55.195Z,6065
2017-09-15T06:50:25.226Z,9570
2017-09-15T06:50:55.259Z,15907
2017-09-15T06:51:25.345Z,16180
2017-09-15T06:51:55.442Z,16285
2017-09-15T06:52:25.318Z,16487
2017-09-15T06:52:55.385Z,16600
2017-09-15T06:53:25.401Z,16558
2017-09-15T06:53:55.464Z,12793
2017-09-15T06:54:25.468Z,11653
2017-09-15T06:54:55.487Z,9572
2017-09-15T06:55:25.488Z,17555
2017-09-15T06:55:55.569Z,8210
2017-09-15T06:56:25.555Z,9295
2017-09-15T06:56:55.614Z,9560
2017-09-15T06:57:25.651Z,18208
2017-09-15T06:57:55.642Z,17987
2017-09-15T06:58:25.672Z,17670
2017-09-15T06:58:55.756Z,8672
2017-09-15T06:59:25.740Z,10315
2017-09-15T06:59:55.763Z,19907
2017-09-15T07:00:25.792Z,19085
2017-09-15T07:00:55.813Z,18790
2017-09-15T07:01:25.863Z,9107
2017-09-15T07:01:55.930Z,11020
2017-09-15T07:02:25.908Z,14722
2017-09-15T07:02:55.941Z,8473
2017-09-15T07:03:25.970Z,8520
2017-09-15T07:03:56.010Z,8987
2017-09-15T07:04:26.074Z,7862
2017-09-15T07:04:56.088Z,7955
2017-09-15T07:05:26.095Z,10727
2017-09-15T07:05:56.181Z,19298
2017-09-15T07:06:26.170Z,18722
2017-09-15T07:06:56.265Z,17782
2017-09-15T07:07:26.226Z,17788
2017-09-15T07:07:56.281Z,18020
2017-09-15T07:08:26.326Z,17840
2017-09-15T07:08:56.309Z,17663
2017-09-15T07:09:26.363Z,17735
2017-09-15T07:09:56.467Z,16570
2017-09-15T07:10:26.451Z,17510
2017-09-15T07:10:56.500Z,17842
2017-09-15T07:11:26.529Z,17998
2017-09-15T07:11:56.622Z,18143
2017-09-15T07:12:26.565Z,18133
2017-09-15T07:12:56.664Z,18175
2017-09-15T07:13:26.652Z,18227
2017-09-15T07:13:56.652Z,18265
2017-09-15T07:14:26.653Z,18152
2017-09-15T07:14:56.745Z,18080
2017-09-15T07:15:26.810Z,18083
2017-09-15T07:15:56.759Z,18262
2017-09-15T07:16:26.797Z,18330
2017-09-15T07:16:56.939Z,18590
2017-09-15T07:17:26.836Z,18583
2017-09-15T07:17:56.875Z,18595
2017-09-15T07:18:26.905Z,18853
2017-09-15T07:18:56.952Z,18692
2017-09-15T07:19:26.982Z,19220
2017-09-15T07:19:57.080Z,19525
2017-09-15T07:20:27.037Z,19717
2017-09-15T07:20:57.215Z,19577
2017-09-15T07:21:27.128Z,19778
2017-09-15T07:21:57.186Z,19817
2017-09-15T07:22:27.162Z,19825
2017-09-15T07:22:57.205Z,20147
2017-09-15T07:23:27.253Z,20117
2017-09-15T07:23:57.308Z,20240
2017-09-15T07:24:27.326Z,20165
2017-09-15T07:24:57.385Z,19990
2017-09-15T07:25:27.359Z,19838
2017-09-15T07:25:57.404Z,19913
2017-09-15T07:26:27.430Z,20047
2017-09-15T07:26:57.536Z,20325
2017-09-15T07:27:27.530Z,20200
2017-09-15T07:27:57.525Z,20005
2017-09-15T07:28:27.551Z,20195
2017-09-15T07:28:57.597Z,20222
2017-09-15T07:29:27.679Z,20348
2017-09-15T07:29:57.706Z,20605
2017-09-15T07:30:27.712Z,20660
2017-09-15T07:30:57.748Z,20960
2017-09-15T07:31:27.765Z,20970
2017-09-15T07:31:57.886Z,20295
2017-09-15T07:32:27.827Z,22125
2017-09-15T07:32:57.815Z,22418
2017-09-15T07:33:27.920Z,22785
2017-09-15T07:33:57.876Z,22193
2017-09-15T07:34:27.987Z,23245
2017-09-15T07:34:57.944Z,22307
2017-09-15T07:35:28.106Z,23025
2017-09-15T07:35:58.010Z,23550
2017-09-15T07:36:28.108Z,12313
2017-09-15T07:36:58.157Z,18187
2017-09-15T07:37:28.168Z,15255
2017-09-15T07:37:58.205Z,14390
2017-09-15T07:38:28.366Z,15160
2017-09-15T07:38:58.260Z,18298
2017-09-15T07:39:28.291Z,27690
2017-09-15T07:39:58.321Z,18613
2017-09-15T07:40:28.358Z,22150
2017-09-15T07:40:58.400Z,15205
2017-09-15T07:41:28.407Z,13732
2017-09-15T07:41:58.437Z,15613
2017-09-15T07:42:28.475Z,24560
2017-09-15T07:42:58.494Z,25420
2017-09-15T07:43:28.472Z,25380
2017-09-15T07:43:58.565Z,25530
2017-09-15T07:44:28.597Z,25423
2017-09-15T07:44:58.576Z,25595
2017-09-15T07:45:28.600Z,25807
2017-09-15T07:45:58.619Z,25995
2017-09-15T07:46:28.710Z,25275
2017-09-15T07:46:58.687Z,26560
2017-09-15T07:47:28.788Z,26932
2017-09-15T07:47:58.759Z,27490
2017-09-15T07:48:28.784Z,27932
2017-09-15T07:48:58.837Z,28322
2017-09-15T07:49:28.879Z,28640
2017-09-15T07:49:58.904Z,29167
2017-09-15T07:50:28.918Z,30020
2017-09-15T07:50:58.986Z,30605
2017-09-15T07:51:28.975Z,30555
2017-09-15T07:51:59.021Z,24157
2017-09-15T07:52:29.091Z,21638
2017-09-15T07:52:59.064Z,22042
2017-09-15T07:53:29.157Z,20780
2017-09-15T07:53:59.199Z,15430
2017-09-15T07:54:29.260Z,13508
2017-09-15T07:54:59.305Z,12905
2017-09-15T07:55:29.289Z,12748
2017-09-15T07:55:59.347Z,14618
2017-09-15T07:56:29.303Z,23170
2017-09-15T07:56:59.390Z,23330
2017-09-15T07:57:29.472Z,25435
2017-09-15T07:57:59.393Z,24163
2017-09-15T07:58:29.464Z,21953
2017-09-15T07:58:59.489Z,20828
2017-09-15T07:59:29.541Z,18517
2017-09-15T07:59:59.534Z,20773
2017-09-15T08:00:29.584Z,19022
2017-09-15T08:00:59.617Z,18845
2017-09-15T08:01:29.651Z,20075
2017-09-15T08:01:59.657Z,20417
2017-09-15T08:02:29.760Z,32215
2017-09-15T08:02:59.740Z,33280
2017-09-15T08:03:29.739Z,32945
2017-09-15T08:03:59.785Z,26970
2017-09-15T08:04:29.893Z,31943
2017-09-15T08:04:59.844Z,31297
2017-09-15T08:05:29.873Z,30868
2017-09-15T08:05:59.923Z,31695
2017-09-15T08:06:29.935Z,32415
2017-09-15T08:07:00.051Z,33130
2017-09-15T08:07:30.021Z,33448
2017-09-15T08:08:00.027Z,30160
2017-09-15T08:08:30.061Z,29198
2017-09-15T08:09:00.094Z,30937
2017-09-15T08:09:30.118Z,31870
2017-09-15T08:10:00.185Z,31385
2017-09-15T08:10:30.196Z,32117
2017-09-15T08:11:00.281Z,32675
2017-09-15T08:11:30.247Z,32897
2017-09-15T08:12:00.657Z,33865
2017-09-15T08:12:30.381Z,23015
2017-09-15T08:13:00.746Z,22540
2017-09-15T08:13:30.394Z,18410
2017-09-15T08:14:00.660Z,17195
2017-09-15T08:14:30.460Z,17713
2017-09-15T08:15:00.671Z,17280
2017-09-15T08:15:30.547Z,16982
2017-09-15T08:16:00.680Z,16733
2017-09-15T08:16:30.602Z,16975
2017-09-15T08:17:00.632Z,17762
2017-09-15T08:17:30.693Z,18077
2017-09-15T08:18:00.682Z,17585
2017-09-15T08:18:30.733Z,22732
2017-09-15T08:19:00.728Z,23672
2017-09-15T08:19:30.898Z,16297
2017-09-15T08:20:00.794Z,16525
2017-09-15T08:20:30.920Z,15635
2017-09-15T08:21:00.853Z,19742
2017-09-15T08:21:30.962Z,19225
2017-09-15T08:22:00.952Z,26560
2017-09-15T08:22:30.941Z,20725
2017-09-15T08:23:00.969Z,26648
2017-09-15T08:23:31.032Z,25505
2017-09-15T08:24:01.068Z,18995
2017-09-15T08:24:31.105Z,14965
2017-09-15T08:25:01.173Z,21992
2017-09-15T08:25:31.195Z,17137
2017-09-15T08:26:01.196Z,16830
2017-09-15T08:26:31.234Z,28565
2017-09-15T08:27:01.268Z,30583
2017-09-15T08:27:31.267Z,30493
2017-09-15T08:28:01.363Z,27943
2017-09-15T08:28:31.368Z,26770
2017-09-15T08:29:01.371Z,30205
2017-09-15T08:29:31.399Z,13082
2017-09-15T08:30:01.518Z,29953
2017-09-15T08:30:31.485Z,21555
2017-09-15T08:31:01.560Z,29150
2017-09-15T08:31:31.602Z,28807
2017-09-15T08:32:01.564Z,28700
2017-09-15T08:32:31.609Z,28648
2017-09-15T08:33:01.625Z,29055
2017-09-15T08:33:31.641Z,29413
2017-09-15T08:34:01.686Z,29867
2017-09-15T08:34:31.713Z,10937
2017-09-15T08:35:01.794Z,30140
2017-09-15T08:35:31.821Z,21217
2017-09-15T08:36:01.816Z,30725
2017-09-15T08:36:31.971Z,30668
2017-09-15T08:37:01.878Z,29948
2017-09-15T08:37:31.881Z,29297
2017-09-15T08:38:02.004Z,25260
2017-09-15T08:38:31.944Z,9755
2017-09-15T08:39:01.979Z,23380
2017-09-15T08:39:32.016Z,29000
2017-09-15T08:40:02.047Z,28483
2017-09-15T08:40:32.094Z,28585
2017-09-15T08:41:02.135Z,29040
2017-09-15T08:41:32.146Z,29275
2017-09-15T08:42:02.227Z,29750
2017-09-15T08:42:32.189Z,30853
2017-09-15T08:43:02.237Z,31170
2017-09-15T08:43:32.308Z,30808
2017-09-15T08:44:02.334Z,30070
2017-09-15T08:44:32.381Z,29803
2017-09-15T08:45:02.362Z,29730
2017-09-15T08:45:32.409Z,29445
2017-09-15T08:46:02.404Z,29287
2017-09-15T08:46:32.475Z,29132
2017-09-15T08:47:02.507Z,29175
2017-09-15T08:47:32.550Z,29210
2017-09-15T08:48:02.628Z,29700
2017-09-15T08:48:32.632Z,28982
2017-09-15T08:49:02.680Z,29848
2017-09-15T08:49:32.671Z,6970
2017-09-15T08:50:02.739Z,29038
2017-09-15T08:50:32.686Z,29905
2017-09-15T08:51:02.777Z,30145
2017-09-15T08:51:32.805Z,30100
2017-09-15T08:52:02.774Z,30062
2017-09-15T08:52:32.807Z,30232
2017-09-15T08:53:02.843Z,30270
2017-09-15T08:53:32.882Z,31385
2017-09-15T08:54:02.914Z,30857
2017-09-15T08:54:32.931Z,30215
2017-09-15T08:55:02.978Z,30257
2017-09-15T08:55:33.059Z,30112
2017-09-15T08:56:03.027Z,30013
2017-09-15T08:56:33.063Z,29728
2017-09-15T08:57:03.162Z,29582
2017-09-15T08:57:33.123Z,30140
2017-09-15T08:58:03.151Z,31115
2017-09-15T08:58:33.180Z,7380
2017-09-15T08:59:03.244Z,31450
2017-09-15T08:59:33.261Z,31363
2017-09-15T09:00:03.295Z,31358
2017-09-15T09:00:33.370Z,14597
2017-09-15T09:01:03.389Z,30643
2017-09-15T09:01:33.449Z,30370
2017-09-15T09:02:03.470Z,30415
2017-09-15T09:02:33.463Z,30400
2017-09-15T09:03:03.541Z,30395
2017-09-15T09:03:33.578Z,30405
2017-09-15T09:04:03.590Z,30560
2017-09-15T09:04:33.595Z,30605
2017-09-15T09:05:03.642Z,30647
2017-09-15T09:05:33.675Z,30885
2017-09-15T09:06:03.673Z,31040
2017-09-15T09:06:33.722Z,31288
2017-09-15T09:07:03.754Z,20095
2017-09-15T09:07:33.838Z,31845
2017-09-15T09:08:03.893Z,32227
2017-09-15T09:08:33.843Z,32698
2017-09-15T09:09:03.902Z,33628
2017-09-15T09:09:33.945Z,34033
2017-09-15T09:10:03.977Z,34222
2017-09-15T09:10:33.970Z,34370
2017-09-15T09:11:04.042Z,34652
2017-09-15T09:11:34.078Z,31442
2017-09-15T09:12:04.113Z,9555
2017-09-15T09:12:34.105Z,14662
2017-09-15T09:13:04.150Z,33443
2017-09-15T09:13:34.190Z,32507
2017-09-15T09:14:04.224Z,33047
2017-09-15T09:14:34.222Z,32842
2017-09-15T09:15:04.286Z,33185
2017-09-15T09:15:34.261Z,7345
2017-09-15T09:16:04.347Z,12413
2017-09-15T09:16:34.348Z,7322
2017-09-15T09:17:04.445Z,30977
2017-09-15T09:17:34.422Z,31305
2017-09-15T09:18:04.437Z,10483
2017-09-15T09:18:34.448Z,31840
2017-09-15T09:19:04.532Z,32803
2017-09-15T09:19:34.522Z,28397
2017-09-15T09:20:04.601Z,6955
2017-09-15T09:20:34.628Z,31952
2017-09-15T09:21:04.640Z,31967
2017-09-15T09:21:34.671Z,32173
2017-09-15T09:22:04.659Z,32180
2017-09-15T09:22:34.737Z,32390
2017-09-15T09:23:04.790Z,32587
2017-09-15T09:23:34.801Z,32533
2017-09-15T09:24:04.795Z,32685
2017-09-15T09:24:34.821Z,32867
2017-09-15T09:25:04.855Z,33248
2017-09-15T09:25:34.900Z,33493
2017-09-15T09:26:04.917Z,33877
2017-09-15T09:26:34.947Z,34102
2017-09-15T09:27:05.000Z,34232
2017-09-15T09:27:35.008Z,34585
2017-09-15T09:28:05.096Z,34648
2017-09-15T09:28:35.153Z,35220
2017-09-15T09:29:05.115Z,35965
2017-09-15T09:29:35.127Z,36817
2017-09-15T09:30:05.167Z,37400
2017-09-15T09:30:35.215Z,37290
2017-09-15T09:31:05.266Z,37380
2017-09-15T09:31:35.286Z,37307
2017-09-15T09:32:05.324Z,37485
2017-09-15T09:32:35.516Z,37450
2017-09-15T09:33:05.442Z,37625
2017-09-15T09:33:35.569Z,37700
2017-09-15T09:34:05.496Z,37130
2017-09-15T09:34:35.485Z,36778
2017-09-15T09:35:05.534Z,36545
2017-09-15T09:35:35.540Z,27090
2017-09-15T09:36:05.578Z,28830
2017-09-15T09:36:35.582Z,38342
2017-09-15T09:37:05.610Z,38582
2017-09-15T09:37:35.731Z,38338
2017-09-15T09:38:05.750Z,31265
2017-09-15T09:38:35.773Z,15150
2017-09-15T09:39:05.760Z,16240
2017-09-15T09:39:35.796Z,21202
2017-09-15T09:40:05.848Z,37620
2017-09-15T09:40:35.857Z,44225
2017-09-15T09:41:05.884Z,43580
2017-09-15T09:41:35.937Z,28933
2017-09-15T09:42:06.027Z,26395
2017-09-15T09:42:35.987Z,43120
2017-09-15T09:43:06.057Z,19712
2017-09-15T09:43:36.068Z,29815
2017-09-15T09:44:06.106Z,14687
2017-09-15T09:44:36.113Z,15328
2017-09-15T09:45:06.148Z,17023
2017-09-15T09:45:36.191Z,12053
2017-09-15T09:46:06.212Z,11280
2017-09-15T09:46:36.240Z,13267
2017-09-15T09:47:06.351Z,11537
2017-09-15T09:47:36.379Z,38530
2017-09-15T09:48:06.390Z,36705
2017-09-15T09:48:36.460Z,28147
2017-09-15T09:49:06.441Z,27495
2017-09-15T09:49:36.479Z,35363
2017-09-15T09:50:06.499Z,38480
2017-09-15T09:50:36.511Z,14335
2017-09-15T09:51:06.608Z,38747
2017-09-15T09:51:36.595Z,37208
2017-09-15T09:52:06.654Z,36647
2017-09-15T09:52:36.614Z,36385
2017-09-15T09:53:06.700Z,37082
2017-09-15T09:53:36.812Z,37933
2017-09-15T09:54:06.769Z,24075
2017-09-15T09:54:36.799Z,37378
2017-09-15T09:55:06.802Z,36165
2017-09-15T09:55:36.857Z,35737
2017-09-15T09:56:06.883Z,35655
2017-09-15T09:56:36.921Z,34885
2017-09-15T09:57:06.912Z,35130
2017-09-15T09:57:36.950Z,35243
2017-09-15T09:58:07.025Z,35790
2017-09-15T09:58:37.071Z,35540
2017-09-15T09:59:07.082Z,10215
2017-09-15T09:59:37.150Z,6765
2017-09-15T10:00:07.125Z,6913
2017-09-15T10:00:37.181Z,8720
2017-09-15T10:01:07.160Z,36530
2017-09-15T10:01:37.376Z,18110
2017-09-15T10:02:07.283Z,8320
2017-09-15T10:02:37.317Z,8372
2017-09-15T10:03:07.339Z,9705
2017-09-15T10:03:37.412Z,38393
2017-09-15T10:04:07.382Z,39338
2017-09-15T10:04:37.447Z,40130
2017-09-15T10:05:07.451Z,39722
2017-09-15T10:05:37.476Z,25335
2017-09-15T10:06:07.509Z,35660
2017-09-15T10:06:37.554Z,14132
2017-09-15T10:07:07.565Z,31865
2017-09-15T10:07:37.636Z,16967
2017-09-15T10:08:07.657Z,38573
2017-09-15T10:08:37.710Z,38273
2017-09-15T10:09:07.661Z,38560
2017-09-15T10:09:37.702Z,38840
2017-09-15T10:10:07.730Z,39242
2017-09-15T10:10:37.782Z,39433
2017-09-15T10:11:07.834Z,39767
2017-09-15T10:11:37.818Z,40170
2017-09-15T10:12:07.847Z,40320
2017-09-15T10:12:37.915Z,41225
2017-09-15T10:13:07.919Z,42385
2017-09-15T10:13:38.011Z,42268
2017-09-15T10:14:07.982Z,39208
2017-09-15T10:14:38.011Z,36122
2017-09-15T10:15:08.050Z,34305
2017-09-15T10:15:38.075Z,23203
2017-09-15T10:16:08.169Z,40565
2017-09-15T10:16:38.194Z,24883
2017-09-15T10:17:08.276Z,38452
2017-09-15T10:17:38.252Z,39973
2017-09-15T10:18:08.321Z,18452
2017-09-15T10:18:38.426Z,26730
2017-09-15T10:19:08.418Z,41393
2017-09-15T10:19:38.448Z,40725
2017-09-15T10:20:08.443Z,40365
2017-09-15T10:20:38.469Z,40118
2017-09-15T10:21:08.514Z,39335
2017-09-15T10:21:38.521Z,17510
2017-09-15T10:22:08.579Z,41567
2017-09-15T10:22:38.636Z,13555
2017-09-15T10:23:08.647Z,24598
2017-09-15T10:23:38.803Z,45885
2017-09-15T10:24:08.693Z,16642
2017-09-15T10:24:38.700Z,18937
2017-09-15T10:25:08.719Z,24615
2017-09-15T10:25:38.755Z,22685
2017-09-15T10:26:08.787Z,40895
2017-09-15T10:26:38.841Z,46787
2017-09-15T10:27:08.864Z,25375
2017-09-15T10:27:38.891Z,25253
2017-09-15T10:28:08.924Z,16155
2017-09-15T10:28:38.992Z,14302
2017-09-15T10:29:08.964Z,12853
2017-09-15T10:29:39.000Z,12178
2017-09-15T10:30:09.037Z,11642
2017-09-15T10:30:39.076Z,11408
2017-09-15T10:31:09.093Z,12475
2017-09-15T10:31:39.169Z,11593
2017-09-15T10:32:09.188Z,11803
2017-09-15T10:32:39.253Z,12600
2017-09-15T10:33:09.230Z,16915
2017-09-15T10:33:39.334Z,17203
2017-09-15T10:34:09.329Z,34040
2017-09-15T10:34:39.333Z,46622
2017-09-15T10:35:09.387Z,46603
2017-09-15T10:35:39.440Z,29020
2017-09-15T10:36:09.436Z,45313
2017-09-15T10:36:39.483Z,47672
2017-09-15T10:37:09.524Z,20363
2017-09-15T10:37:39.587Z,18535
2017-09-15T10:38:09.630Z,18952
2017-09-15T10:38:39.665Z,23123
2017-09-15T10:39:09.676Z,30673
2017-09-15T10:39:39.675Z,30592
2017-09-15T10:40:09.735Z,26473
2017-09-15T10:40:39.768Z,25853
2017-09-15T10:41:09.822Z,24635
2017-09-15T10:41:39.820Z,14308
2017-09-15T10:42:09.835Z,13430
2017-09-15T10:42:39.880Z,13470
2017-09-15T10:43:09.870Z,14102
2017-09-15T10:43:40.082Z,15225
2017-09-15T10:44:09.935Z,27305
2017-09-15T10:44:40.009Z,24875
2017-09-15T10:45:10.049Z,48227
2017-09-15T10:45:40.047Z,23430
2017-09-15T10:46:10.086Z,20912
2017-09-15T10:46:40.081Z,21752
2017-09-15T10:47:10.147Z,22325
2017-09-15T10:47:40.192Z,47625
2017-09-15T10:48:10.227Z,37820
2017-09-15T10:48:40.530Z,30115
2017-09-15T10:49:10.269Z,51553
2017-09-15T10:49:40.371Z,23800
2017-09-15T10:50:10.352Z,25697
2017-09-15T10:50:40.423Z,26543
2017-09-15T10:51:10.426Z,22930
2017-09-15T10:51:40.468Z,22890
2017-09-15T10:52:10.458Z,27440
2017-09-15T10:52:40.474Z,35213
2017-09-15T10:53:10.555Z,26288
2017-09-15T10:53:40.632Z,22673
2017-09-15T10:54:10.557Z,20548
2017-09-15T10:54:40.626Z,16748
2017-09-15T10:55:10.618Z,15763
2017-09-15T10:55:40.657Z,15145
2017-09-15T10:56:10.690Z,15448
2017-09-15T10:56:40.712Z,16228
2017-09-15T10:57:10.738Z,14855
2017-09-15T10:57:40.775Z,15665
2017-09-15T10:58:10.876Z,16950
2017-09-15T10:58:40.857Z,17820
2017-09-15T10:59:10.878Z,17440
2017-09-15T10:59:40.985Z,17050
2017-09-15T11:00:10.943Z,17040
2017-09-15T11:00:40.970Z,17338
2017-09-15T11:01:10.996Z,17550
2017-09-15T11:01:41.041Z,19760
2017-09-15T11:02:11.051Z,19055
2017-09-15T11:02:41.135Z,18300
2017-09-15T11:03:11.129Z,17923